Time;durP1;ratioP1;P1;durP2;ratioP2;P2;SDS_P1;SDS_P2;PMS_P1;PMS_P2;Temp;Humidity;BMP_temperature;BMP_pressure;BME280_temperature;BME280_humidity;BME280_pressure;Samples;Min_cycle;Max_cycle;Signal;HPM_P1;HPM_P2
2023/10/04 00:01:38;;;;;;;1999.90;999.90;;;;;;;14.78;100.00;96328.16;5065830;28;20166;-52
2023/10/04 00:04:04;;;;;;;1999.90;999.90;;;;;;;14.78;100.00;96330.91;5066226;28;20174;-53
2023/10/04 00:06:33;;;;;;;1999.90;999.90;;;;;;;14.71;100.00;96316.47;5065790;28;20229;-55
2023/10/04 00:08:59;;;;;;;1999.90;999.90;;;;;;;14.65;100.00;96318.09;5065745;28;20224;-51
2023/10/04 00:11:26;;;;;;;1999.90;999.90;;;;;;;14.62;100.00;96319.69;5065693;28;20193;-50
2023/10/04 00:13:51;;;;;;;1999.90;999.90;;;;;;;14.56;100.00;96321.31;5066038;28;20169;-53
2023/10/04 00:16:18;;;;;;;1999.90;999.90;;;;;;;14.50;100.00;96319.41;5065642;28;20177;-51
2023/10/04 00:18:44;;;;;;;1999.90;999.90;;;;;;;14.44;100.00;96318.25;5065404;28;20208;-50
2023/10/04 00:21:12;;;;;;;1999.90;999.90;;;;;;;14.42;100.00;96324.16;5065283;28;20170;-52
2023/10/04 00:23:38;;;;;;;1999.90;999.90;;;;;;;14.43;100.00;96320.25;5064693;28;20204;-52
2023/10/04 00:26:07;;;;;;;1999.90;999.90;;;;;;;14.44;100.00;96318.25;5065300;28;20231;-52
2023/10/04 00:28:32;;;;;;;1999.90;999.90;;;;;;;14.41;100.00;96319.84;5065223;28;20177;-53
2023/10/04 00:30:57;;;;;;;1999.90;999.90;;;;;;;14.39;100.00;96316.72;5065854;28;20167;-52
2023/10/04 00:33:23;;;;;;;1999.90;999.90;;;;;;;14.35;100.00;96310.47;5065622;28;20170;-51
2023/10/04 00:35:50;;;;;;;1999.90;999.90;;;;;;;14.33;100.00;96307.38;5065869;28;20169;-51
2023/10/04 00:38:17;;;;;;;1999.90;999.90;;;;;;;14.30;100.00;96297.19;5065458;28;20220;-51
2023/10/04 00:40:43;;;;;;;1999.90;999.90;;;;;;;14.30;100.00;96305.41;5065570;28;20174;-53
2023/10/04 00:43:13;;;;;;;1999.90;999.90;;;;;;;14.30;100.00;96307.38;5065145;28;20173;-49
2023/10/04 00:45:39;;;;;;;1999.90;999.90;;;;;;;14.20;100.00;96303.50;5065528;28;20162;-51
2023/10/04 00:48:13;;;;;;;1999.90;999.90;;;;;;;14.11;100.00;96305.13;5064908;28;20516;-52
2023/10/04 00:50:39;;;;;;;1999.90;999.90;;;;;;;14.05;100.00;96307.53;5065189;28;20169;-50
2023/10/04 00:53:16;;;;;;;1999.90;999.90;;;;;;;14.00;100.00;96297.00;5064367;28;20174;-51
2023/10/04 00:55:44;;;;;;;1999.90;999.90;;;;;;;13.95;100.00;96283.66;5064496;28;20169;-53
2023/10/04 00:58:17;;;;;;;1999.90;999.90;;;;;;;13.94;100.00;96279.38;5064999;28;20227;-50
2023/10/04 01:00:43;;;;;;;1999.90;999.90;;;;;;;13.88;100.00;96278.22;5064813;28;20216;-53
2023/10/04 01:03:09;;;;;;;1999.90;999.90;;;;;;;13.77;100.00;96269.25;5065351;28;20392;-51
2023/10/04 01:05:39;;;;;;;1999.90;999.90;;;;;;;13.73;100.00;96267.75;5064487;28;20217;-54
2023/10/04 01:08:06;;;;;;;1999.90;999.90;;;;;;;13.66;100.00;96265.81;5064454;28;20177;-50
2023/10/04 01:10:34;;;;;;;1999.90;999.90;;;;;;;13.62;100.00;96256.81;5065039;28;20180;-49
2023/10/04 01:13:01;;;;;;;1999.90;999.90;;;;;;;13.56;100.00;96247.47;5064865;28;20173;-49
2023/10/04 01:15:31;;;;;;;1999.90;999.90;;;;;;;13.51;100.00;96225.16;5064489;28;20166;-49
2023/10/04 01:17:58;;;;;;;1999.90;999.90;;;;;;;13.41;100.00;96217.75;5065058;28;20185;-51
2023/10/04 01:20:33;;;;;;;1999.90;999.90;;;;;;;13.33;100.00;96204.06;5064835;28;20173;-52
2023/10/04 01:23:05;;;;;;;1999.90;999.90;;;;;;;13.30;100.00;96184.91;5065063;28;20448;-50
2023/10/04 01:25:36;;;;;;;1999.90;999.90;;;;;;;13.26;100.00;96167.69;5064330;28;20253;-51
2023/10/04 01:28:07;;;;;;;1999.90;999.90;;;;;;;13.25;100.00;96150.44;5064724;28;20176;-54
2023/10/04 01:30:33;;;;;;;1999.90;999.90;;;;;;;13.21;100.00;96137.91;5064762;28;20244;-51
2023/10/04 01:33:02;;;;;;;1999.90;999.90;;;;;;;13.17;100.00;96126.97;5063742;28;20188;-53
2023/10/04 01:35:28;;;;;;;1999.90;999.90;;;;;;;13.13;100.00;96114.47;5064890;28;20176;-53
2023/10/04 01:37:54;;;;;;;1999.90;999.90;;;;;;;13.11;100.00;96109.38;5064417;28;20201;-50
2023/10/04 01:40:26;;;;;;;1999.90;999.90;;;;;;;13.04;100.00;96100.44;5064019;28;20177;-53
2023/10/04 01:42:54;;;;;;;1999.90;999.90;;;;;;;12.98;100.00;96102.81;5064720;28;20174;-50
2023/10/04 01:45:21;;;;;;;1999.90;999.90;;;;;;;12.93;100.00;96099.69;5063916;28;20177;-51
2023/10/04 01:47:46;;;;;;;1999.90;999.90;;;;;;;12.92;100.00;96084.41;5063835;28;20174;-53
2023/10/04 01:50:12;;;;;;;1999.90;999.90;;;;;;;12.85;100.00;96081.69;5063972;28;20357;-50
2023/10/04 01:52:45;;;;;;;1999.90;999.90;;;;;;;12.82;100.00;96077.03;5064579;28;20290;-51
2023/10/04 01:55:11;;;;;;;1999.90;999.90;;;;;;;12.77;100.00;96066.47;5063899;28;20176;-52
2023/10/04 01:57:41;;;;;;;1999.90;999.90;;;;;;;12.77;100.00;96056.31;5063648;28;20522;-49
2023/10/04 02:00:09;;;;;;;1999.90;999.90;;;;;;;12.73;100.00;96046.53;5063854;28;20196;-48
2023/10/04 02:02:36;;;;;;;1999.90;999.90;;;;;;;12.69;100.00;96035.59;5063743;28;20172;-53
2023/10/04 02:05:03;;;;;;;1999.90;999.90;;;;;;;12.66;100.00;96016.44;5063438;28;20403;-52
2023/10/04 02:07:28;;;;;;;1999.90;999.90;;;;;;;12.60;100.00;95998.84;5064558;28;20166;-50
2023/10/04 02:09:53;;;;;;;1999.90;999.90;;;;;;;12.52;100.00;95991.84;5063653;28;20182;-48
2023/10/04 02:12:20;;;;;;;1999.90;999.90;;;;;;;12.47;100.00;95975.84;5063656;28;20197;-51
2023/10/04 02:14:46;;;;;;;1999.90;999.90;;;;;;;12.42;100.00;95970.78;5063676;28;20174;-52
2023/10/04 02:17:16;;;;;;;1999.90;999.90;;;;;;;12.36;100.00;95950.47;5063465;28;20197;-50
2023/10/04 02:19:41;;;;;;;1999.90;999.90;;;;;;;12.33;100.00;95935.63;5063606;28;20203;-50
2023/10/04 02:22:08;;;;;;;1999.90;999.90;;;;;;;12.30;100.00;95924.69;5064152;28;20165;-50
2023/10/04 02:24:33;;;;;;;1999.90;999.90;;;;;;;12.29;100.00;95917.66;5064091;28;20283;-49
2023/10/04 02:27:01;;;;;;;1999.90;999.90;;;;;;;12.26;100.00;95902.03;5063955;28;20185;-49
2023/10/04 02:29:27;;;;;;;1999.90;999.90;;;;;;;12.20;100.00;95887.97;5063958;28;20174;-50
2023/10/04 02:31:53;;;;;;;1999.90;999.90;;;;;;;12.16;100.00;95895.44;5063454;28;20185;-48
2023/10/04 02:34:19;;;;;;;1999.90;999.90;;;;;;;12.11;100.00;95881.38;5063442;28;20173;-51
2023/10/04 02:36:45;;;;;;;1999.90;999.90;;;;;;;12.10;100.00;95871.63;5063367;28;20169;-47
2023/10/04 02:39:11;;;;;;;1999.90;999.90;;;;;;;12.08;100.00;95865.75;5063909;28;20177;-49
2023/10/04 02:41:37;;;;;;;1999.90;999.90;;;;;;;12.08;100.00;95857.53;5063377;28;20557;-50
2023/10/04 02:44:02;;;;;;;1999.90;999.90;;;;;;;12.08;100.00;95847.38;5063884;28;20173;-52
2023/10/04 02:46:28;;;;;;;1999.90;999.90;;;;;;;12.10;100.00;95834.06;5066396;28;20199;-47
2023/10/04 02:48:54;;;;;;;1999.90;999.90;;;;;;;12.11;100.00;95832.91;5067197;28;20244;-48
2023/10/04 02:51:20;;;;;;;1999.90;999.90;;;;;;;12.13;100.00;95838.72;5067103;28;20212;-53
2023/10/04 02:53:45;;;;;;;1999.90;999.90;;;;;;;12.14;100.00;95842.25;5067583;28;20253;-52
2023/10/04 02:56:11;;;;;;;1999.90;999.90;;;;;;;12.15;100.00;95852.03;5066979;28;20357;-50
2023/10/04 02:58:36;;;;;;;1999.90;999.90;;;;;;;12.11;100.00;95845.78;5067323;28;20216;-48
2023/10/04 03:01:02;;;;;;;1999.90;999.90;;;;;;;12.11;100.00;95852.06;5066913;28;20173;-47
2023/10/04 03:03:30;;;;;;;1999.90;999.90;;;;;;;12.10;100.00;95855.19;5066834;28;20173;-48
2023/10/04 03:05:56;;;;;;;1999.90;999.90;;;;;;;12.08;100.00;95860.28;5066844;28;20216;-47
2023/10/04 03:08:23;;;;;;;1999.90;999.90;;;;;;;12.06;100.00;95859.91;5067162;28;20194;-50
2023/10/04 03:10:50;;;;;;;1999.90;999.90;;;;;;;12.02;100.00;95870.88;5067296;28;20169;-52
2023/10/04 03:13:25;;;;;;;1999.90;999.90;;;;;;;11.99;100.00;95871.66;5067199;28;20245;-47
2023/10/04 03:15:52;;;;;;;1999.90;999.90;;;;;;;11.95;100.00;95876.38;5066858;28;20197;-47
2023/10/04 03:18:21;;;;;;;1999.90;999.90;;;;;;;11.94;100.00;95874.03;5066610;28;20196;-48
2023/10/04 03:20:54;;;;;;;1999.90;999.90;;;;;;;11.91;100.00;95880.34;5066565;28;20237;-48
2023/10/04 03:23:21;;;;;;;1999.90;999.90;;;;;;;11.90;100.00;95887.75;5066991;28;20193;-48
2023/10/04 03:25:49;;;;;;;1999.90;999.90;;;;;;;11.91;100.00;95891.28;5067232;28;20181;-46
2023/10/04 03:28:15;;;;;;;1999.90;999.90;;;;;;;11.87;100.00;95885.81;5066886;28;20267;-51
2023/10/04 03:30:44;;;;;;;1999.90;999.90;;;;;;;11.87;100.00;95885.81;5066346;28;20367;-49
2023/10/04 03:33:10;;;;;;;1999.90;999.90;;;;;;;11.83;100.00;95895.22;5066275;28;20173;-49
2023/10/04 03:35:39;;;;;;;1999.90;999.90;;;;;;;11.80;100.00;95896.81;5066741;28;20330;-48
2023/10/04 03:38:07;;;;;;;1999.90;999.90;;;;;;;11.80;100.00;95896.03;5066137;28;20178;-47
2023/10/04 03:40:36;;;;;;;1999.90;999.90;;;;;;;11.79;100.00;95899.94;5066928;28;20204;-49
2023/10/04 03:43:12;;;;;;;1999.90;999.90;;;;;;;11.76;100.00;95889.81;5066605;28;20178;-49
2023/10/04 03:45:39;;;;;;;1999.90;999.90;;;;;;;11.74;100.00;95892.16;5066614;28;20173;-51
2023/10/04 03:48:05;;;;;;;1999.90;999.90;;;;;;;11.73;100.00;95890.59;5065826;28;20501;-49
2023/10/04 03:50:31;;;;;;;1999.90;999.90;;;;;;;11.68;100.00;95899.19;5065877;28;20174;-50
2023/10/04 03:52:59;;;;;;;1999.90;999.90;;;;;;;11.62;100.00;95909.78;5065953;28;20217;-51
2023/10/04 03:55:28;;;;;;;1999.90;999.90;;;;;;;11.60;100.00;95908.59;5065863;28;20176;-54
2023/10/04 03:57:54;;;;;;;1999.90;999.90;;;;;;;11.54;100.00;95910.94;5065740;28;20192;-48
2023/10/04 04:00:22;;;;;;;1999.90;999.90;;;;;;;11.53;100.00;95903.13;5065849;28;20176;-50
2023/10/04 04:02:51;;;;;;;1999.90;999.90;;;;;;;11.51;100.00;95910.97;5065830;28;20215;-50
2023/10/04 04:05:21;;;;;;;1999.90;999.90;;;;;;;11.51;100.00;95895.31;5065615;28;20250;-47
2023/10/04 04:07:48;;;;;;;1999.90;999.90;;;;;;;11.50;100.00;95882.03;5065567;28;20505;-50
2023/10/04 04:10:14;;;;;;;1999.90;999.90;;;;;;;11.41;100.00;95885.22;5065813;28;20195;-46
2023/10/04 04:12:41;;;;;;;1999.90;999.90;;;;;;;11.38;100.00;95877.03;5065476;28;20181;-50
2023/10/04 04:15:10;;;;;;;1999.90;999.90;;;;;;;11.34;100.00;95871.59;5065292;28;20197;-52
2023/10/04 04:17:41;;;;;;;1999.90;999.90;;;;;;;11.27;100.00;95873.53;5066246;28;20176;-49
2023/10/04 04:20:16;;;;;;;1999.90;999.90;;;;;;;11.21;100.00;95864.19;5065361;28;20226;-48
2023/10/04 04:22:55;;;;;;;1999.90;999.90;;;;;;;11.20;100.00;95851.69;5065842;28;20390;-49
2023/10/04 04:25:23;;;;;;;1999.90;999.90;;;;;;;11.17;100.00;95842.34;5065780;28;20176;-49
2023/10/04 04:27:50;;;;;;;1999.90;999.90;;;;;;;11.16;100.00;95840.00;5065653;28;20204;-49
2023/10/04 04:30:19;;;;;;;1999.90;999.90;;;;;;;11.12;100.00;95844.69;5065176;28;20184;-52
2023/10/04 04:32:47;;;;;;;1999.90;999.90;;;;;;;11.04;100.00;95851.38;5065662;28;20173;-49
2023/10/04 04:35:22;;;;;;;1999.90;999.90;;;;;;;11.01;100.00;95860.34;5065462;28;20173;-49
2023/10/04 04:37:53;;;;;;;1999.90;999.90;;;;;;;10.99;100.00;95854.47;5065144;28;20172;-47
2023/10/04 04:40:23;;;;;;;1999.90;999.90;;;;;;;10.95;100.00;95851.75;5065265;28;20188;-49
2023/10/04 04:42:49;;;;;;;1999.90;999.90;;;;;;;10.89;100.00;95847.88;5065471;28;20255;-52
2023/10/04 04:45:16;;;;;;;1999.90;999.90;;;;;;;10.87;100.00;95843.97;5064798;28;20180;-50
2023/10/04 04:47:44;;;;;;;1999.90;999.90;;;;;;;10.84;100.00;95839.28;5064488;28;20379;-51
2023/10/04 04:50:10;;;;;;;1999.90;999.90;;;;;;;10.83;100.00;95837.75;5065159;28;20180;-53
2023/10/04 04:52:36;;;;;;;1999.90;999.90;;;;;;;10.78;100.00;95838.16;5065231;28;20234;-53
2023/10/04 04:55:02;;;;;;;1999.90;999.90;;;;;;;10.75;100.00;95836.19;5065244;28;20180;-50
2023/10/04 04:57:30;;;;;;;1999.90;999.90;;;;;;;10.73;100.00;95831.13;5064603;28;20204;-53
2023/10/04 04:59:56;;;;;;;1999.90;999.90;;;;;;;10.70;100.00;95828.41;5065434;28;20461;-52
2023/10/04 05:02:25;;;;;;;1999.90;999.90;;;;;;;10.68;100.00;95819.81;5064494;28;20177;-50
2023/10/04 05:04:51;;;;;;;1999.90;999.90;;;;;;;10.65;100.00;95820.59;5064231;28;20227;-53
2023/10/04 05:07:16;;;;;;;1999.90;999.90;;;;;;;10.62;100.00;95821.38;5065033;28;20209;-49
2023/10/04 05:09:43;;;;;;;1999.90;999.90;;;;;;;10.62;100.00;95821.38;5064073;28;20175;-52
2023/10/04 05:12:08;;;;;;;1999.90;999.90;;;;;;;10.59;100.00;95827.66;5064318;28;20171;-52
2023/10/04 05:14:35;;;;;;;1999.90;999.90;;;;;;;10.59;100.00;95822.94;5064387;28;20181;-53
2023/10/04 05:17:00;;;;;;;1999.90;999.90;;;;;;;10.58;100.00;95826.06;5064663;28;20185;-55
2023/10/04 05:19:26;;;;;;;1999.90;999.90;;;;;;;10.60;100.00;95824.50;5064132;28;20181;-50
2023/10/04 05:21:51;;;;;;;1999.90;999.90;;;;;;;10.62;100.00;95833.09;5064043;28;20243;-51
2023/10/04 05:24:17;;;;;;;1999.90;999.90;;;;;;;10.66;100.00;95827.63;5064156;28;20177;-48
2023/10/04 05:26:42;;;;;;;1999.90;999.90;;;;;;;10.68;100.00;95830.75;5063942;28;20188;-47
2023/10/04 05:29:08;;;;;;;1999.90;999.90;;;;;;;10.71;100.00;95838.91;5064323;28;20178;-49
2023/10/04 05:31:33;;;;;;;1999.90;999.90;;;;;;;10.79;100.00;95842.44;5064561;28;20192;-49
2023/10/04 05:33:59;;;;;;;1999.90;999.90;;;;;;;10.95;100.00;95845.50;5064011;28;20178;-52
2023/10/04 05:36:24;;;;;;;1999.90;999.90;;;;;;;11.29;100.00;95863.00;5063806;28;20188;-54
2023/10/04 05:38:49;;;;;;;1999.90;999.90;;;;;;;11.71;100.00;95879.25;5063728;28;20205;-52
2023/10/04 05:41:15;;;;;;;1999.90;999.90;;;;;;;12.09;100.00;95924.81;5063829;28;20181;-53
2023/10/04 05:43:40;;;;;;;1999.90;999.90;;;;;;;12.57;100.00;95983.97;5063855;28;20181;-55
2023/10/04 05:46:06;;;;;;;1999.90;999.90;;;;;;;13.06;100.00;96065.16;5063647;28;20178;-55
2023/10/04 05:48:34;;;;;;;1999.90;999.90;;;;;;;13.59;100.00;96158.84;5063754;28;20201;-52
2023/10/04 05:51:00;;;;;;;1999.90;999.90;;;;;;;14.18;100.00;96226.22;5064488;28;20216;-52
2023/10/04 05:53:26;;;;;;;1999.90;999.90;;;;;;;14.86;100.00;96306.91;5064170;28;20182;-53
2023/10/04 05:55:51;;;;;;;1999.90;999.90;;;;;;;15.37;100.00;96373.59;5063751;28;20228;-51
2023/10/04 05:58:17;;;;;;;1999.90;999.90;;;;;;;15.77;100.00;96422.31;5063663;28;20495;-52
2023/10/04 06:00:42;;;;;;;1999.90;999.90;;;;;;;16.04;100.00;96459.00;5063603;28;20242;-52
2023/10/04 06:03:12;;;;;;;1999.90;999.90;;;;;;;16.56;100.00;96472.50;5063713;28;20173;-52
2023/10/04 06:05:39;;;;;;;1999.90;999.90;;;;;;;17.28;100.00;96477.31;5063680;28;20232;-54
2023/10/04 06:08:10;;;;;;;1999.90;999.90;;;;;;;17.72;100.00;96482.50;5064272;28;20201;-50
2023/10/04 06:10:36;;;;;;;1999.90;999.90;;;;;;;17.99;100.00;96481.19;5064259;28;20178;-54
2023/10/04 06:13:02;;;;;;;1999.90;999.90;;;;;;;18.27;100.00;96485.38;5064204;28;20237;-52
2023/10/04 06:15:27;;;;;;;1999.90;999.90;;;;;;;18.29;100.00;96494.78;5063188;28;20181;-51
2023/10/04 06:17:52;;;;;;;1999.90;999.90;;;;;;;18.44;100.00;96496.13;5063296;28;20173;-51
2023/10/04 06:20:23;;;;;;;1999.90;999.90;;;;;;;18.97;100.00;96495.72;5065497;28;20180;-50
2023/10/04 06:23:00;;;;;;;1999.90;999.90;;;;;;;19.53;100.00;96499.16;5068023;28;20166;-50
2023/10/04 06:25:27;;;;;;;1999.90;999.90;;;;;;;19.91;100.00;96513.22;5067952;28;20170;-51
2023/10/04 06:27:56;;;;;;;1999.90;999.90;;;;;;;20.31;100.00;96509.75;5067506;28;20193;-50
2023/10/04 06:30:28;;;;;;;1999.90;999.90;;;;;;;20.50;100.00;96517.16;5067320;28;20178;-51
2023/10/04 06:32:55;;;;;;;1999.90;999.90;;;;;;;20.67;100.00;96520.63;5067397;28;20180;-52
2023/10/04 06:35:23;;;;;;;1999.90;999.90;;;;;;;20.94;100.00;96513.47;5067172;28;20178;-50
2023/10/04 06:37:52;;;;;;;1999.90;999.90;;;;;;;21.31;100.00;96512.72;5067389;28;20173;-48
2023/10/04 06:40:22;;;;;;;1999.90;999.90;;;;;;;21.64;100.00;96516.03;5067671;28;20193;-52
2023/10/04 06:42:49;;;;;;;1999.90;999.90;;;;;;;21.76;100.00;96529.16;5067590;28;20170;-48
2023/10/04 06:45:19;;;;;;;1999.90;999.90;;;;;;;22.00;100.00;96528.31;5066924;28;20200;-50
2023/10/04 06:47:47;;;;;;;1999.90;999.90;;;;;;;22.32;100.00;96530.75;5066921;28;20198;-48
2023/10/04 06:50:18;;;;;;;1999.90;999.90;;;;;;;22.34;100.00;96536.66;5067000;28;20249;-47
2023/10/04 06:52:50;;;;;;;1999.90;999.90;;;;;;;22.34;100.00;96536.66;5067032;28;20174;-48
2023/10/04 06:55:18;;;;;;;1999.90;999.90;;;;;;;22.72;100.00;96532.94;5066943;28;20170;-49
2023/10/04 06:57:44;;;;;;;1999.90;999.90;;;;;;;22.36;100.00;96536.97;5066850;28;20189;-50
2023/10/04 07:00:20;;;;;;;1999.90;999.90;;;;;;;22.27;100.00;96536.13;5066746;28;20178;-47
2023/10/04 07:02:49;;;;;;;1999.90;999.90;;;;;;;22.09;100.00;96538.75;5067176;28;20180;-53
2023/10/04 07:05:24;;;;;;;1999.90;999.90;;;;;;;22.44;100.00;96535.47;5066540;28;20225;-54
2023/10/04 07:07:56;;;;;;;1999.90;999.90;;;;;;;23.17;100.00;96541.56;5067280;28;20228;-54
2023/10/04 07:10:23;;;;;;;1999.90;999.90;;;;;;;23.23;100.00;96534.19;5067542;28;20244;-53
2023/10/04 07:12:51;;;;;;;1999.90;999.90;;;;;;;23.73;100.00;96539.31;5066584;28;20233;-52
2023/10/04 07:15:18;;;;;;;1999.90;999.90;;;;;;;23.97;100.00;96537.56;5067252;28;20174;-54
2023/10/04 07:17:44;;;;;;;1999.90;999.90;;;;;;;24.82;100.00;96535.41;5066589;28;20174;-51
2023/10/04 07:20:15;;;;;;;1999.90;999.90;;;;;;;25.27;100.00;96549.25;5066920;28;20169;-54
2023/10/04 07:23:08;;;;;;;1999.90;999.90;;;;;;;26.46;100.00;96540.56;5066646;28;20166;-53
2023/10/04 07:25:37;;;;;;;1999.90;999.90;;;;;;;26.74;92.24;96541.13;5063064;28;20257;-49
2023/10/04 07:28:04;;;;;;;1999.90;999.90;;;;;;;26.66;91.39;96545.59;5066835;28;20225;-49
2023/10/04 07:30:31;;;;;;;1999.90;999.90;;;;;;;26.72;90.90;96547.22;5066324;28;20182;-52
2023/10/04 07:33:01;;;;;;;1999.90;999.90;;;;;;;26.92;91.47;96549.38;5065703;28;20170;-51
2023/10/04 07:35:27;;;;;;;1999.90;999.90;;;;;;;26.98;88.55;96548.22;5066239;28;20190;-49
2023/10/04 07:37:54;;;;;;;1999.90;999.90;;;;;;;26.92;93.18;96550.16;5066470;28;20178;-53
2023/10/04 07:40:23;;;;;;;1999.90;999.90;;;;;;;27.63;78.13;96561.88;5066574;28;20231;-51
2023/10/04 07:42:52;;;;;;;1999.90;999.90;;;;;;;26.55;87.92;96551.69;5066634;28;20197;-53
2023/10/04 07:45:19;;;;;;;1999.90;999.90;;;;;;;28.13;80.20;96557.78;5066048;28;20174;-52
2023/10/04 07:47:45;;;;;;;1999.90;999.90;;;;;;;28.80;73.71;96547.41;5065917;28;20206;-51
2023/10/04 07:50:15;;;;;;;1999.90;999.90;;;;;;;27.97;74.57;96557.56;5065901;28;20181;-48
2023/10/04 07:52:44;;;;;;;1999.90;999.90;;;;;;;28.01;79.41;96553.25;5065888;28;20174;-53
2023/10/04 07:55:14;;;;;;;1999.90;999.90;;;;;;;28.24;70.65;96549.50;5066344;28;20224;-53
2023/10/04 07:57:42;;;;;;;1999.90;999.90;;;;;;;26.85;83.00;96553.34;5066113;28;20186;-50
2023/10/04 08:00:15;;;;;;;1999.90;999.90;;;;;;;26.96;87.53;96553.56;5065850;28;20223;-52
2023/10/04 08:02:51;;;;;;;1999.90;999.90;;;;;;;28.14;77.66;96539.66;5066197;28;20181;-52
2023/10/04 08:05:21;;;;;;;1999.90;999.90;;;;;;;27.24;77.87;96534.44;5065842;28;20209;-48
2023/10/04 08:07:48;;;;;;;1999.90;999.90;;;;;;;26.15;83.00;96533.81;5066077;28;20197;-49
2023/10/04 08:10:13;;;;;;;1999.90;999.90;;;;;;;25.10;97.55;96534.09;5065580;28;20192;-50
2023/10/04 08:12:40;;;;;;;1999.90;999.90;;;;;;;24.93;100.00;96530.09;5065684;28;20165;-49
2023/10/04 08:15:07;;;;;;;1999.90;999.90;;;;;;;25.29;93.71;96530.81;5065586;28;20250;-51
2023/10/04 08:17:33;;;;;;;1999.90;999.90;;;;;;;24.87;100.00;96529.16;5066174;28;20177;-50
2023/10/04 08:19:58;;;;;;;1999.90;999.90;;;;;;;24.56;100.00;96529.34;5065293;28;20245;-51
2023/10/04 08:22:24;;;;;;;1999.90;999.90;;;;;;;24.80;97.44;96527.47;5065295;28;20170;-49
2023/10/04 08:24:49;;;;;;;1999.90;999.90;;;;;;;25.32;95.50;96531.88;5065314;28;20170;-49
2023/10/04 08:27:16;;;;;;;1999.90;999.90;;;;;;;25.50;88.04;96529.03;5065210;28;20220;-51
2023/10/04 08:29:43;;;;;;;1999.90;999.90;;;;;;;26.63;82.23;96524.91;5065738;28;20198;-46
2023/10/04 08:32:08;;;;;;;1999.90;999.90;;;;;;;27.12;74.73;96516.59;5065687;28;20166;-51
2023/10/04 08:34:34;;;;;;;1999.90;999.90;;;;;;;26.67;73.24;96525.47;5065302;28;20173;-49
2023/10/04 08:36:59;;;;;;;1999.90;999.90;;;;;;;24.47;89.90;96525.81;5065051;28;20200;-49
2023/10/04 08:39:26;;;;;;;1999.90;999.90;;;;;;;25.19;86.48;96525.69;5065023;28;20170;-50
2023/10/04 08:41:52;;;;;;;1999.90;999.90;;;;;;;25.00;85.56;96527.75;5065009;28;20281;-49
2023/10/04 08:44:18;;;;;;;1999.90;999.90;;;;;;;24.95;90.63;96519.25;5063886;28;20170;-49
2023/10/04 08:46:46;;;;;;;1999.90;999.90;;;;;;;24.56;92.52;96520.19;5064795;28;20217;-51
2023/10/04 08:49:15;;;;;;;1999.90;999.90;;;;;;;24.83;92.43;96525.75;5064961;28;20166;-48
2023/10/04 08:51:51;;;;;;;1999.90;999.90;;;;;;;25.12;90.32;96528.81;5064751;28;20176;-49
2023/10/04 08:54:24;;;;;;;1999.90;999.90;;;;;;;24.02;100.00;96517.38;5064659;28;20170;-48
2023/10/04 08:57:00;;;;;;;1999.90;999.90;;;;;;;25.47;90.78;96524.38;5065102;28;20169;-50
2023/10/04 08:59:27;;;;;;;1999.90;999.90;;;;;;;25.41;87.89;96526.25;5065119;28;20239;-51
2023/10/04 09:01:54;;;;;;;1999.90;999.90;;;;;;;25.18;88.33;96516.53;5064594;28;20176;-51
2023/10/04 09:04:24;;;;;;;1999.90;999.90;;;;;;;24.74;92.93;96511.81;5065001;28;20174;-50
2023/10/04 09:06:51;;;;;;;1999.90;999.90;;;;;;;23.88;100.00;96512.38;5064677;28;20256;-46
2023/10/04 09:09:18;;;;;;;1999.90;999.90;;;;;;;23.62;100.00;96511.06;5064913;28;20170;-48
2023/10/04 09:11:45;;;;;;;1999.90;999.90;;;;;;;22.97;100.00;96508.47;5064483;28;20177;-49
2023/10/04 09:14:11;;;;;;;1999.90;999.90;;;;;;;23.28;100.00;96500.13;5064821;28;20174;-47
2023/10/04 09:16:36;;;;;;;1999.90;999.90;;;;;;;23.75;100.00;96497.78;5064914;28;20181;-47
2023/10/04 09:19:21;;;;;;;1999.90;999.90;;;;;;;24.36;100.00;96501.09;5064809;28;20173;-51
2023/10/04 09:21:51;;;;;;;1999.90;999.90;;;;;;;24.44;97.77;96510.72;5065069;28;20170;-49
2023/10/04 09:24:16;;;;;;;1999.90;999.90;;;;;;;24.41;99.39;96508.09;5064448;28;20169;-48
2023/10/04 09:26:52;;;;;;;1999.90;999.90;;;;;;;24.54;97.82;96517.06;5064106;28;20177;-47
2023/10/04 09:29:35;;;;;;;1999.90;999.90;;;;;;;24.57;97.74;96507.75;5064655;28;20177;-51
2023/10/04 09:32:02;;;;;;;1999.90;999.90;;;;;;;23.87;100.00;96502.44;5064083;28;20195;-50
2023/10/04 09:34:28;;;;;;;1999.90;999.90;;;;;;;24.51;94.76;96504.81;5064107;28;20177;-49
2023/10/04 09:36:54;;;;;;;1999.90;999.90;;;;;;;24.33;94.57;96506.88;5064034;28;20180;-49
2023/10/04 09:39:25;;;;;;;1999.90;999.90;;;;;;;24.93;90.95;96508.53;5064168;28;20173;-53
2023/10/04 09:41:55;;;;;;;1999.90;999.90;;;;;;;25.65;87.28;96510.28;5063892;28;20213;-48
2023/10/04 09:44:25;;;;;;;1999.90;999.90;;;;;;;24.91;80.92;96504.66;5063897;28;20165;-50
2023/10/04 09:47:01;;;;;;;1999.90;999.90;;;;;;;25.77;76.55;96500.88;5064351;28;20182;-48
2023/10/04 09:49:31;;;;;;;1999.90;999.90;;;;;;;24.65;83.96;96498.63;5063609;28;20240;-52
2023/10/04 09:51:57;;;;;;;1999.90;999.90;;;;;;;24.51;84.90;96498.47;5063736;28;20165;-50
2023/10/04 09:54:23;;;;;;;1999.90;999.90;;;;;;;25.15;84.51;96491.50;5063618;28;20254;-50
2023/10/04 09:56:51;;;;;;;1999.90;999.90;;;;;;;26.41;75.02;96490.81;5063702;28;20170;-49
2023/10/04 09:59:19;;;;;;;1999.90;999.90;;;;;;;26.57;73.52;96487.53;5064130;28;20173;-47
2023/10/04 10:01:55;;;;;;;1999.90;999.90;;;;;;;26.22;72.71;96486.56;5063761;28;20166;-53
2023/10/04 10:04:24;;;;;;;1999.90;999.90;;;;;;;26.02;73.94;96480.84;5064113;28;20173;-50
2023/10/04 10:07:14;;;;;;;1999.90;999.90;;;;;;;27.29;66.97;96475.59;5063289;28;20277;-47
2023/10/04 10:10:05;;;;;;;1999.90;999.90;;;;;;;27.02;69.72;96475.09;5063945;28;20166;-50
2023/10/04 10:12:34;;;;;;;1999.90;999.90;;;;;;;27.38;68.82;96478.28;5064044;28;20237;-52
2023/10/04 10:15:04;;;;;;;1999.90;999.90;;;;;;;27.08;68.43;96471.13;5063590;28;20178;-51
2023/10/04 10:17:30;;;;;;;1999.90;999.90;;;;;;;26.82;71.75;96464.56;5063469;28;20178;-47
2023/10/04 10:19:57;;;;;;;1999.90;999.90;;;;;;;27.76;67.75;96461.19;5063454;28;20171;-52
2023/10/04 10:22:22;;;;;;;1999.90;999.90;;;;;;;27.40;67.74;96469.38;5063454;28;20174;-51
2023/10/04 10:25:14;;;;;;;1999.90;999.90;;;;;;;27.51;66.60;96467.50;5063680;28;20196;-50
2023/10/04 10:27:41;;;;;;;1999.90;999.90;;;;;;;27.49;69.50;96460.81;5048492;28;20247;-50
2023/10/04 10:30:08;;;;;;;1999.90;999.90;;;;;;;27.72;65.45;96471.88;5063422;28;20169;-51
2023/10/04 10:32:34;;;;;;;1999.90;999.90;;;;;;;26.55;69.06;96473.22;5063845;28;20166;-49
2023/10/04 10:35:04;;;;;;;1999.90;999.90;;;;;;;26.23;71.19;96462.16;5063386;28;20176;-51
2023/10/04 10:37:35;;;;;;;1999.90;999.90;;;;;;;26.12;69.62;96457.09;5064218;28;20185;-51
2023/10/04 10:40:07;;;;;;;1999.90;999.90;;;;;;;25.39;75.80;96456.00;5063885;28;20166;-53
2023/10/04 10:43:08;;;;;;;1999.90;999.90;;;;;;;25.90;73.58;96453.81;5063831;28;20158;-51
2023/10/04 10:45:34;;;;;;;1999.90;999.90;;;;;;;26.31;73.30;96447.28;5063671;28;20166;-52
2023/10/04 10:48:01;;;;;;;1999.90;999.90;;;;;;;26.81;71.43;96440.56;5063256;28;20284;-53
2023/10/04 10:50:33;;;;;;;1999.90;999.90;;;;;;;25.82;72.72;96447.03;5063202;28;20240;-52
2023/10/04 10:53:10;;;;;;;1999.90;999.90;;;;;;;24.14;80.49;96441.84;5063286;28;20173;-50
2023/10/04 10:55:41;;;;;;;1999.90;999.90;;;;;;;23.83;87.12;96434.84;5063982;28;20162;-51